createdAt,value
2022-08-21T06:01:37.874Z,5.00
2022-08-21T06:04:08.294Z,5.50
2022-08-21T06:06:37.330Z,6.70
2022-08-21T06:09:06.850Z,8.13
2022-08-21T06:11:36.402Z,10.25
2022-08-21T06:14:07.578Z,60.67
2022-08-21T06:16:36.282Z,5.55
2022-08-21T06:19:04.975Z,4.80
2022-08-21T06:21:33.929Z,5.75
2022-08-21T06:24:02.603Z,11.40
2022-08-21T06:26:31.917Z,8.95
2022-08-21T06:29:00.934Z,7.03
2022-08-21T06:31:31.293Z,6.10
2022-08-21T06:34:00.128Z,4.88
2022-08-21T06:36:28.852Z,6.43
2022-08-21T06:38:57.927Z,6.68
2022-08-21T06:41:27.116Z,7.95
2022-08-21T06:43:56.749Z,7.93
2022-08-21T06:46:27.129Z,7.53
2022-08-21T06:48:58.449Z,6.53
2022-08-21T06:51:27.727Z,6.38
2022-08-21T06:53:56.794Z,7.68
2022-08-21T06:56:28.248Z,3.15
2022-08-21T06:58:57.049Z,7.88
2022-08-21T07:01:28.139Z,3.25
2022-08-21T07:03:58.437Z,4.78
2022-08-21T07:06:27.169Z,7.22
2022-08-21T07:08:58.903Z,4.22
2022-08-21T07:11:28.132Z,3.20
2022-08-21T07:13:57.774Z,5.78
2022-08-21T07:16:26.724Z,216.82
2022-08-21T07:18:55.474Z,6.85
2022-08-21T07:21:26.290Z,4.32
2022-08-21T07:23:55.167Z,20.27
2022-08-21T07:26:25.538Z,3.90
2022-08-21T07:28:55.637Z,3.83
2022-08-21T07:31:26.450Z,23.25
2022-08-21T07:33:55.679Z,126.95
2022-08-21T07:36:25.923Z,5.93
2022-08-21T07:38:55.067Z,4.82
2022-08-21T07:41:25.547Z,4.13
2022-08-21T07:43:55.012Z,4.15
2022-08-21T07:46:23.995Z,4.00
2022-08-21T07:48:53.666Z,5.38
2022-08-21T07:51:27.962Z,8.73
2022-08-21T07:53:58.728Z,4.95
2022-08-21T07:56:27.644Z,5.13
2022-08-21T07:58:58.495Z,6.32
2022-08-21T08:01:28.305Z,5.13
2022-08-21T08:03:57.347Z,5.45
2022-08-21T08:06:27.547Z,2.90
2022-08-21T08:08:56.212Z,6.18
2022-08-21T08:11:25.129Z,5.38
2022-08-21T08:13:54.936Z,4.25
2022-08-21T08:16:23.729Z,56.10
2022-08-21T08:18:52.573Z,5.03
2022-08-21T08:21:22.115Z,4.50
2022-08-21T08:23:52.695Z,4.90
2022-08-21T08:26:21.377Z,4.78
2022-08-21T08:28:50.082Z,3.35
2022-08-21T08:31:18.922Z,5.07
2022-08-21T08:33:47.693Z,7.85
2022-08-21T08:36:18.268Z,5.43
2022-08-21T08:38:49.559Z,4.75
2022-08-21T08:41:23.977Z,5.82
2022-08-21T08:44:03.175Z,6.10
2022-08-21T08:46:38.695Z,3.08
2022-08-21T08:49:14.425Z,2.75
2022-08-21T08:51:53.373Z,4.43
2022-08-21T08:54:32.632Z,2.58
2022-08-21T08:57:03.957Z,8.48
2022-08-21T08:59:41.127Z,3.28
2022-08-21T09:02:14.531Z,4.18
2022-08-21T09:04:44.114Z,4.43
2022-08-21T09:07:22.730Z,5.47
2022-08-21T09:10:02.991Z,3.20
2022-08-21T09:12:43.089Z,4.15
2022-08-21T09:15:23.248Z,3.92
2022-08-21T09:18:22.270Z,6.93
2022-08-21T09:21:03.654Z,5.35
2022-08-21T09:23:44.707Z,2.53
2022-08-21T09:26:17.130Z,5.45
2022-08-21T09:28:48.793Z,3.83
2022-08-21T09:31:25.564Z,6.72
2022-08-21T09:34:01.228Z,3.53
2022-08-21T09:36:38.205Z,6.20
2022-08-21T09:39:07.849Z,4.43
2022-08-21T09:41:37.876Z,3.42
2022-08-21T09:44:09.573Z,8.07
2022-08-21T09:46:38.618Z,4.65
2022-08-21T09:49:13.518Z,6.45
2022-08-21T09:51:55.272Z,4.22
2022-08-21T09:54:31.909Z,3.15
2022-08-21T09:57:20.169Z,3.97
2022-08-21T09:59:50.364Z,4.28
2022-08-21T10:02:27.719Z,3.53
2022-08-21T10:04:58.409Z,5.13
2022-08-21T10:07:29.128Z,3.75
2022-08-21T10:10:03.477Z,6.63
2022-08-21T10:12:43.412Z,5.43
2022-08-21T10:15:21.697Z,5.50
2022-08-21T10:17:59.816Z,4.68
2022-08-21T10:20:32.776Z,3.85
2022-08-21T10:23:20.153Z,5.75
2022-08-21T10:25:57.209Z,2.72
2022-08-21T10:28:53.841Z,4.15
2022-08-21T10:31:36.849Z,5.32
2022-08-21T10:34:18.354Z,4.50
2022-08-21T10:36:52.072Z,4.50
2022-08-21T10:39:35.284Z,7.75
2022-08-21T10:42:27.898Z,4.18
2022-08-21T10:45:12.649Z,6.65
2022-08-21T10:47:49.012Z,40.80
2022-08-21T10:50:27.453Z,5.32
2022-08-21T10:53:15.613Z,6.25
2022-08-21T10:55:49.107Z,3.90
2022-08-21T10:58:26.010Z,4.10
2022-08-21T11:01:00.009Z,3.75
2022-08-21T11:03:36.208Z,3.95
2022-08-21T11:06:11.286Z,2.38
2022-08-21T11:08:43.748Z,6.50
2022-08-21T11:11:22.135Z,3.38
2022-08-21T11:13:56.330Z,3.28
2022-08-21T11:16:33.929Z,4.30
2022-08-21T11:19:13.407Z,4.18
2022-08-21T11:21:45.853Z,6.97
2022-08-21T11:24:27.531Z,9.57
2022-08-21T11:27:03.877Z,5.53
2022-08-21T11:29:35.633Z,4.60
2022-08-21T11:32:26.281Z,5.38
2022-08-21T11:35:10.333Z,2.40
2022-08-21T11:37:54.474Z,6.28
2022-08-21T11:40:34.269Z,3.55
2022-08-21T11:43:14.771Z,3.53
2022-08-21T11:45:49.637Z,4.25
2022-08-21T11:48:33.914Z,1999.90
2022-08-21T11:51:10.169Z,1999.90
2022-08-21T11:53:41.409Z,1999.90
2022-08-21T11:56:14.332Z,1999.90
2022-08-21T11:58:46.576Z,1999.90
2022-08-21T12:01:20.894Z,1999.90
2022-08-21T12:03:57.669Z,1999.90
2022-08-21T12:06:41.507Z,1999.90
2022-08-21T12:09:33.486Z,1999.90
2022-08-21T12:12:09.078Z,1999.90
2022-08-21T12:14:40.648Z,1999.90
2022-08-21T12:17:12.632Z,1999.90
2022-08-21T12:19:42.128Z,1999.90
2022-08-21T12:22:14.910Z,1999.90
2022-08-21T12:24:46.969Z,1999.90
2022-08-21T12:27:26.829Z,1999.90
2022-08-21T12:29:58.854Z,1999.90
2022-08-21T12:32:30.012Z,546.33
2022-08-21T12:35:04.732Z,97.05
2022-08-21T12:37:41.682Z,0.63
2022-08-21T12:40:19.903Z,37.28
2022-08-21T12:42:58.545Z,94.75
2022-08-21T12:45:33.129Z,1999.90
2022-08-21T12:48:08.490Z,1999.90
2022-08-21T12:50:42.693Z,93.50
2022-08-21T12:53:29.249Z,32.38
2022-08-21T12:56:02.954Z,49.00
2022-08-21T12:58:32.033Z,32.95
2022-08-21T13:01:19.522Z,7.07
2022-08-21T13:03:49.307Z,8.65
2022-08-21T13:06:39.612Z,3.15
2022-08-21T13:09:13.379Z,0.77
2022-08-21T13:11:43.451Z,0.30
2022-08-21T13:14:27.007Z,0.40
2022-08-21T13:16:57.405Z,0.40
2022-08-21T13:19:27.529Z,0.30
2022-08-21T13:21:56.254Z,0.30
2022-08-21T13:24:42.408Z,0.30
2022-08-21T13:27:27.292Z,0.30
2022-08-21T13:30:12.454Z,0.40
2022-08-21T13:32:45.096Z,0.40
2022-08-21T13:35:17.656Z,0.70
2022-08-21T13:37:48.877Z,0.50
2022-08-21T13:40:22.604Z,0.30
2022-08-21T13:42:51.517Z,5.72
2022-08-21T13:45:26.439Z,9.43
2022-08-21T13:47:57.769Z,6.22
2022-08-21T13:50:27.967Z,2.00
2022-08-21T13:53:02.687Z,9.40
2022-08-21T13:55:42.750Z,10.23
2022-08-21T13:58:12.930Z,9.23
2022-08-21T14:00:48.079Z,7.30
2022-08-21T14:03:34.113Z,4.65
2022-08-21T14:06:03.140Z,1999.90
2022-08-21T14:08:35.794Z,1999.90
2022-08-21T14:11:08.376Z,1999.90
2022-08-21T14:13:41.208Z,1999.90
2022-08-21T14:16:16.857Z,1999.90
2022-08-21T14:18:51.372Z,1999.90
2022-08-21T14:21:30.795Z,1999.90
2022-08-21T14:24:08.854Z,1999.90
2022-08-21T14:26:46.267Z,1999.90
2022-08-21T14:29:17.685Z,1999.90
2022-08-21T14:31:53.451Z,1999.90
2022-08-21T14:34:23.628Z,1999.90
2022-08-21T14:36:52.840Z,1999.90
2022-08-21T14:39:21.693Z,1999.90
2022-08-21T14:41:54.492Z,1999.90
2022-08-21T14:44:23.205Z,1999.90
2022-08-21T14:46:56.429Z,1999.90
2022-08-21T14:49:31.766Z,1999.90
2022-08-21T14:52:00.726Z,1999.90
2022-08-21T14:54:32.379Z,1999.90
2022-08-21T14:57:05.930Z,1999.90
2022-08-21T14:59:35.035Z,1999.90
2022-08-21T15:02:05.426Z,1999.90
2022-08-21T15:04:35.442Z,1999.90
2022-08-21T15:07:04.247Z,1999.90
2022-08-21T15:09:32.933Z,1999.90
2022-08-21T15:12:04.575Z,1999.90
2022-08-21T15:14:36.812Z,1999.90
2022-08-21T15:17:07.847Z,1999.90
2022-08-21T15:19:37.004Z,1999.90
2022-08-21T15:22:06.127Z,1999.90
2022-08-21T15:24:44.497Z,1999.90
2022-08-21T15:27:16.794Z,1999.90
2022-08-21T15:29:45.594Z,1999.90
2022-08-21T15:32:23.889Z,1999.90
2022-08-21T15:34:53.609Z,1999.90
2022-08-21T15:37:23.310Z,1999.90
2022-08-21T15:39:53.805Z,1999.90
2022-08-21T15:42:25.050Z,1999.90
2022-08-21T15:44:55.257Z,1999.90
2022-08-21T15:47:28.534Z,1999.90
2022-08-21T15:49:57.307Z,1999.90
2022-08-21T15:52:26.315Z,1999.90
2022-08-21T15:54:55.354Z,1999.90
2022-08-21T15:57:27.204Z,1999.90
2022-08-21T16:00:00.917Z,1999.90
2022-08-21T16:02:32.422Z,1999.90
2022-08-21T16:05:01.780Z,1999.90
2022-08-21T16:07:30.609Z,1999.90
2022-08-21T16:09:59.373Z,1999.90
2022-08-21T16:12:33.092Z,1999.90
2022-08-21T16:15:03.433Z,1999.90
2022-08-21T16:17:34.012Z,1999.90
2022-08-21T16:20:05.913Z,1999.90
2022-08-21T16:22:36.366Z,1999.90
2022-08-21T16:25:13.477Z,1999.90
2022-08-21T16:27:44.953Z,1999.90
2022-08-21T16:30:16.694Z,1999.90
2022-08-21T16:32:46.480Z,1999.90
2022-08-21T16:35:17.611Z,1999.90
2022-08-21T16:37:50.054Z,1999.90
2022-08-21T16:40:23.357Z,1999.90
2022-08-21T16:42:54.129Z,1999.90
2022-08-21T16:45:23.436Z,1999.90
2022-08-21T16:47:52.495Z,1999.90
2022-08-21T16:50:24.377Z,1999.90
2022-08-21T16:52:54.452Z,1999.90
2022-08-21T16:55:23.165Z,1999.90
2022-08-21T16:57:54.512Z,1999.90
2022-08-21T17:00:23.528Z,1999.90
2022-08-21T17:02:56.328Z,1999.90
2022-08-21T17:05:25.234Z,1999.90
2022-08-21T17:07:54.409Z,1999.90
2022-08-21T17:10:23.547Z,1999.90
2022-08-21T17:12:57.953Z,1999.90
2022-08-21T17:15:40.892Z,1999.90
2022-08-21T17:18:12.615Z,1999.90
2022-08-21T17:20:41.577Z,1999.90
2022-08-21T17:23:10.713Z,1999.90
2022-08-21T17:25:41.172Z,1999.90
2022-08-21T17:28:16.312Z,581.40
2022-08-21T17:30:46.303Z,3.58
2022-08-21T17:33:16.548Z,6.97
2022-08-21T17:35:45.877Z,4.32
2022-08-21T17:38:15.076Z,3.20
2022-08-21T17:40:44.086Z,3.25
2022-08-21T17:43:15.971Z,4.95
2022-08-21T17:45:45.713Z,2.88
2022-08-21T17:48:14.951Z,5.47
2022-08-21T17:50:44.194Z,5.32
2022-08-21T17:53:13.051Z,3.58
2022-08-21T17:55:42.194Z,3.60
2022-08-21T17:58:11.759Z,2.25
2022-08-21T18:00:41.921Z,75.43
2022-08-21T18:03:15.151Z,2.47
2022-08-21T18:05:44.085Z,506.23
2022-08-21T18:08:13.366Z,3.63
2022-08-21T18:10:44.091Z,3.95
2022-08-21T18:13:16.128Z,4.18
2022-08-21T18:15:50.728Z,2.67
2022-08-21T18:18:19.532Z,192.57
2022-08-21T18:20:48.370Z,5.22
2022-08-21T18:23:17.388Z,3.17
2022-08-21T18:25:50.175Z,2.85
2022-08-21T18:28:20.529Z,3.40
2022-08-21T18:30:50.887Z,3.97
2022-08-21T18:33:20.434Z,4.75
2022-08-21T18:35:49.287Z,5.15
2022-08-21T18:38:21.406Z,3.13
2022-08-21T18:40:55.896Z,2.42
2022-08-21T18:43:25.731Z,4.57
2022-08-21T18:45:56.052Z,2.70
2022-08-21T18:51:13.952Z,4.47
2022-08-21T18:53:42.772Z,2.92
2022-08-21T18:56:16.046Z,4.30
2022-08-21T18:58:46.171Z,4.13
2022-08-21T19:01:16.459Z,6.65
2022-08-21T19:03:46.474Z,4.60
2022-08-21T19:06:18.969Z,129.48
2022-08-21T19:08:48.076Z,174.95
2022-08-21T19:11:23.268Z,4.95
2022-08-21T19:13:54.674Z,2.85
2022-08-21T19:16:24.946Z,4.32
2022-08-21T19:18:54.568Z,6.32
2022-08-21T19:21:27.048Z,4.55
2022-08-21T19:23:56.913Z,3.28
2022-08-21T19:26:29.294Z,8.38
2022-08-21T19:29:02.216Z,4.78
2022-08-21T19:31:34.908Z,3.45
2022-08-21T19:34:08.238Z,3.97
2022-08-21T19:36:36.914Z,73.47
2022-08-21T19:41:13.154Z,2.72
2022-08-21T19:43:45.477Z,3.38
2022-08-21T19:46:16.870Z,4.65
2022-08-21T19:48:46.680Z,4.78
2022-08-21T19:51:15.612Z,6.20
2022-08-21T19:53:44.367Z,3.70
2022-08-21T19:56:19.757Z,5.47
2022-08-21T20:01:20.803Z,441.55
2022-08-21T20:03:53.247Z,5.50
2022-08-21T20:06:24.110Z,4.10
2022-08-21T20:08:55.064Z,8.30
2022-08-21T20:14:21.794Z,14.32
2022-08-21T20:16:52.601Z,5.55
2022-08-21T20:19:22.170Z,5.60
2022-08-21T20:21:51.132Z,3.53
2022-08-21T20:24:19.890Z,3.42
